createdAt,value
2023-04-01T00:04:12.753Z,30.88
2023-04-01T00:09:16.132Z,30.51
2023-04-01T00:14:18.981Z,30.62
2023-04-01T00:19:23.114Z,30.69
2023-04-01T00:24:26.054Z,30.71
2023-04-01T00:29:30.300Z,30.58
2023-04-01T00:34:34.500Z,30.72
2023-04-01T00:39:37.735Z,30.64
2023-04-01T00:44:40.831Z,30.69
2023-04-01T00:49:47.818Z,30.77
2023-04-01T00:54:52.793Z,30.77
2023-04-01T00:59:56.673Z,30.85
2023-04-01T01:05:00.869Z,30.99
2023-04-01T01:10:07.398Z,30.94
2023-04-01T01:15:14.441Z,31.23
2023-04-01T01:20:46.717Z,31.01
2023-04-01T01:25:56.683Z,31.24
2023-04-01T01:31:04.365Z,31.13
2023-04-01T01:36:09.238Z,31.16
2023-04-01T01:41:13.316Z,31.00
2023-04-01T01:46:20.769Z,31.18
2023-04-01T01:51:25.396Z,31.20
2023-04-01T01:56:30.155Z,31.00
2023-04-01T02:01:35.614Z,31.17
2023-04-01T02:06:41.973Z,31.17
2023-04-01T02:11:49.849Z,31.12
2023-04-01T02:16:56.030Z,31.18
2023-04-01T02:22:03.785Z,31.40
2023-04-01T02:27:06.925Z,31.38
2023-04-01T02:32:11.269Z,31.35
2023-04-01T02:37:15.996Z,31.61
2023-04-01T02:42:18.821Z,31.54
2023-04-01T02:47:21.742Z,31.43
2023-04-01T02:52:26.235Z,31.34
2023-04-01T02:57:29.293Z,31.56
2023-04-01T03:02:32.276Z,31.44
2023-04-01T03:07:36.466Z,31.58
2023-04-01T03:12:39.339Z,31.37
2023-04-01T03:17:42.758Z,31.64
2023-04-01T03:22:47.652Z,31.60
2023-04-01T03:27:50.534Z,31.58
2023-04-01T03:32:53.623Z,31.70
2023-04-01T03:37:57.922Z,31.73
2023-04-01T03:43:00.824Z,31.75
2023-04-01T03:48:03.956Z,31.73
2023-04-01T03:53:08.281Z,31.79
2023-04-01T03:58:11.303Z,31.66
2023-04-01T04:03:14.153Z,31.64
2023-04-01T04:08:18.955Z,31.93
2023-04-01T04:13:21.744Z,31.88
2023-04-01T04:18:24.681Z,31.84
2023-04-01T04:23:29.335Z,31.90
2023-04-01T04:28:32.266Z,31.93
2023-04-01T04:33:35.396Z,31.88
2023-04-01T04:38:39.608Z,31.95
2023-04-01T04:43:43.261Z,31.87
2023-04-01T04:48:46.156Z,32.02
2023-04-01T04:53:52.971Z,31.88
2023-04-01T04:58:56.527Z,31.83
2023-04-01T05:03:59.365Z,31.93
2023-04-01T05:09:04.708Z,31.90
2023-04-01T05:14:07.540Z,31.86
2023-04-01T05:19:10.549Z,31.99
2023-04-01T05:24:14.736Z,32.01
2023-04-01T05:29:17.625Z,32.04
2023-04-01T05:34:20.484Z,31.86
2023-04-01T05:39:25.242Z,31.84
2023-04-01T05:44:28.193Z,31.90
2023-04-01T05:49:31.174Z,32.16
2023-04-01T05:54:35.662Z,32.05
2023-04-01T05:59:38.675Z,32.00
2023-04-01T06:04:42.420Z,32.12
2023-04-01T06:09:47.240Z,31.97
2023-04-01T06:14:55.109Z,32.13
2023-04-01T06:20:02.361Z,32.04
2023-04-01T06:25:31.977Z,31.99
2023-04-01T06:30:40.592Z,31.93
2023-04-01T06:36:07.136Z,32.05
2023-04-01T06:41:37.737Z,32.07
2023-04-01T06:46:46.140Z,32.15
2023-04-01T06:51:55.206Z,31.96
2023-04-01T06:57:03.571Z,32.05
2023-04-01T07:02:12.061Z,32.00
2023-04-01T07:07:33.068Z,32.08
2023-04-01T07:12:43.964Z,31.96
2023-04-01T07:17:49.061Z,31.98
2023-04-01T07:22:53.872Z,31.99
2023-04-01T07:28:02.260Z,31.98
2023-04-01T07:33:07.858Z,32.08
2023-04-01T07:38:18.921Z,32.05
2023-04-01T07:43:46.707Z,31.94
2023-04-01T07:48:53.498Z,31.96
2023-04-01T07:54:02.758Z,31.89
2023-04-01T07:59:13.578Z,31.86
2023-04-01T08:04:38.114Z,31.76
2023-04-01T08:09:46.675Z,31.77
2023-04-01T08:14:56.975Z,31.86
2023-04-01T08:20:10.083Z,31.79
2023-04-01T08:25:18.806Z,31.84
2023-04-01T08:30:25.691Z,31.87
2023-04-01T08:35:33.030Z,31.79
2023-04-01T08:40:58.028Z,31.84
2023-04-01T08:46:12.866Z,32.20
2023-04-01T08:51:28.008Z,31.86
2023-04-01T08:56:35.957Z,31.88
2023-04-01T09:02:03.261Z,31.94
2023-04-01T09:07:15.961Z,31.89
2023-04-01T09:12:31.174Z,31.81
2023-04-01T09:17:57.553Z,31.82
2023-04-01T09:23:23.343Z,31.79
2023-04-01T09:28:31.110Z,31.82
2023-04-01T09:33:56.221Z,31.55
2023-04-01T09:39:00.411Z,31.81
2023-04-01T09:44:05.588Z,31.81
2023-04-01T09:49:37.000Z,31.91
2023-04-01T09:54:56.744Z,31.64
2023-04-01T10:00:35.012Z,31.71
2023-04-01T10:06:18.290Z,31.80
2023-04-01T10:12:03.065Z,32.03
2023-04-01T10:17:22.734Z,32.26
2023-04-01T10:22:41.522Z,32.12
2023-04-01T10:28:02.178Z,32.12
2023-04-01T10:33:37.491Z,32.21
2023-04-01T10:39:15.626Z,32.01
2023-04-01T10:45:02.144Z,32.08
2023-04-01T10:50:27.026Z,32.06
2023-04-01T10:55:39.583Z,31.86
2023-04-01T11:01:14.619Z,32.04
2023-04-01T11:07:05.702Z,32.38
2023-04-01T11:12:39.688Z,32.20
2023-04-01T11:18:33.176Z,32.12
2023-04-01T11:24:05.771Z,32.22
2023-04-01T11:29:33.484Z,32.13
2023-04-01T11:34:59.388Z,32.19
2023-04-01T11:40:13.305Z,32.19
2023-04-01T11:45:24.991Z,32.40
2023-04-01T11:50:37.549Z,32.20
2023-04-01T11:55:50.630Z,32.17
2023-04-01T12:01:14.662Z,32.03
2023-04-01T12:06:21.532Z,32.10
2023-04-01T12:11:31.267Z,32.26
2023-04-01T12:16:53.802Z,32.29
2023-04-01T12:22:11.692Z,32.39
2023-04-01T12:27:28.397Z,32.48
2023-04-01T12:32:37.258Z,32.38
2023-04-01T12:37:44.237Z,32.36
2023-04-01T12:42:59.409Z,32.37
2023-04-01T12:48:17.255Z,32.24
2023-04-01T12:53:35.009Z,32.27
2023-04-01T12:59:03.823Z,32.36
2023-04-01T13:04:54.756Z,32.27
2023-04-01T13:10:04.394Z,32.43
2023-04-01T13:15:29.925Z,32.53
2023-04-01T13:20:42.887Z,32.37
2023-04-01T13:25:51.022Z,32.34
2023-04-01T13:31:01.233Z,32.43
2023-04-01T13:36:21.280Z,32.67
2023-04-01T13:41:31.781Z,32.70
2023-04-01T13:46:51.347Z,32.82
2023-04-01T13:52:42.529Z,32.74
2023-04-01T13:57:55.980Z,32.80
2023-04-01T14:03:17.898Z,32.86
2023-04-01T14:08:31.428Z,33.41
2023-04-01T14:13:41.015Z,34.05
2023-04-01T14:19:14.076Z,33.89
2023-04-01T14:24:25.015Z,33.93
2023-04-01T14:29:35.685Z,34.29
2023-04-01T14:34:59.305Z,34.30
2023-04-01T14:40:13.933Z,34.60
2023-04-01T14:45:35.298Z,35.00
2023-04-01T14:50:45.676Z,34.96
2023-04-01T14:55:51.949Z,34.83
2023-04-01T15:01:01.711Z,34.77
2023-04-01T15:06:45.151Z,35.95
2023-04-01T15:11:58.811Z,34.63
2023-04-01T15:17:15.513Z,34.80
2023-04-01T15:22:51.382Z,34.43
2023-04-01T15:27:58.155Z,34.40
2023-04-01T15:33:12.083Z,34.88
2023-04-01T15:38:26.022Z,34.24
2023-04-01T15:43:35.241Z,34.27
2023-04-01T15:48:52.734Z,34.16
2023-04-01T15:54:10.458Z,34.00
2023-04-01T15:59:23.076Z,34.06
2023-04-01T16:04:48.885Z,34.25
2023-04-01T16:10:01.454Z,34.46
2023-04-01T16:15:12.934Z,34.58
2023-04-01T16:20:21.356Z,34.06
2023-04-01T16:25:35.917Z,34.12
2023-04-01T16:30:41.107Z,34.28
2023-04-01T16:35:46.593Z,34.21
2023-04-01T16:41:01.156Z,34.40
2023-04-01T16:46:22.619Z,34.61
2023-04-01T16:51:26.057Z,34.59
2023-04-01T16:56:40.550Z,34.20
2023-04-01T17:01:47.134Z,34.33
2023-04-01T17:06:54.605Z,34.41
2023-04-01T17:12:07.177Z,34.08
2023-04-01T17:17:21.338Z,34.12
2023-04-01T17:22:30.527Z,34.22
2023-04-01T17:27:43.370Z,34.08
2023-04-01T17:33:00.440Z,34.14
2023-04-01T17:38:13.366Z,34.04
2023-04-01T17:43:24.746Z,34.13
2023-04-01T17:48:38.119Z,34.10
2023-04-01T17:53:47.586Z,34.18
2023-04-01T17:59:01.593Z,34.22
2023-04-01T18:04:12.990Z,34.27
2023-04-01T18:09:23.231Z,34.30
2023-04-01T18:14:39.621Z,34.18
2023-04-01T18:19:50.887Z,34.17
2023-04-01T18:24:59.103Z,33.99
2023-04-01T18:30:10.067Z,33.92
2023-04-01T18:35:22.006Z,33.86
2023-04-01T18:40:29.884Z,33.65
2023-04-01T18:45:36.277Z,33.58
2023-04-01T18:50:41.448Z,33.63
2023-04-01T18:55:48.733Z,33.63
2023-04-01T19:01:03.492Z,33.41
2023-04-01T19:06:17.793Z,33.46
2023-04-01T19:11:28.244Z,33.27
2023-04-01T19:16:44.706Z,33.31
2023-04-01T19:21:54.861Z,33.02
2023-04-01T19:27:01.157Z,33.10
2023-04-01T19:32:12.904Z,33.05
2023-04-01T19:37:27.444Z,32.70
2023-04-01T19:42:35.644Z,32.69
2023-04-01T19:47:56.050Z,32.56
2023-04-01T19:53:01.490Z,32.48
2023-04-01T19:58:08.240Z,32.46
2023-04-01T20:03:18.445Z,32.55
2023-04-01T20:08:27.788Z,32.32
2023-04-01T20:13:37.290Z,32.37
2023-04-01T20:18:49.722Z,32.39
2023-04-01T20:23:56.473Z,32.36
2023-04-01T20:29:25.398Z,32.19
2023-04-01T20:34:57.736Z,32.17
2023-04-01T20:40:25.607Z,32.05
2023-04-01T20:45:35.363Z,32.10
2023-04-01T20:50:43.815Z,32.23
2023-04-01T20:56:04.678Z,32.04
2023-04-01T21:01:17.407Z,32.10
2023-04-01T21:06:35.705Z,32.01
2023-04-01T21:11:43.723Z,32.32
2023-04-01T21:16:52.004Z,32.16
2023-04-01T21:22:26.333Z,32.19
2023-04-01T21:27:39.989Z,32.16
2023-04-01T21:32:55.363Z,32.26
2023-04-01T21:38:12.953Z,32.01
2023-04-01T21:43:29.175Z,32.06
2023-04-01T21:48:45.910Z,32.29
2023-04-01T21:54:18.908Z,32.13
2023-04-01T21:59:42.370Z,32.04
2023-04-01T22:04:51.486Z,32.16
2023-04-01T22:10:01.851Z,32.12
2023-04-01T22:15:13.393Z,31.99
2023-04-01T22:20:26.141Z,32.11
2023-04-01T22:25:36.621Z,32.10
2023-04-01T22:30:43.298Z,32.11
2023-04-01T22:35:51.439Z,31.85
2023-04-01T22:40:59.836Z,32.20
2023-04-01T22:46:18.521Z,32.18
2023-04-01T22:51:23.942Z,31.98
2023-04-01T22:56:30.125Z,31.98
2023-04-01T23:01:40.524Z,31.97
2023-04-01T23:06:45.927Z,32.21
2023-04-01T23:11:53.837Z,32.17
2023-04-01T23:17:00.790Z,32.12
2023-04-01T23:22:09.910Z,32.14
2023-04-01T23:27:19.179Z,32.11
2023-04-01T23:32:26.994Z,32.05
2023-04-01T23:37:30.084Z,32.14
2023-04-01T23:42:40.232Z,32.10
2023-04-01T23:47:43.908Z,31.96
2023-04-01T23:52:49.239Z,32.04
2023-04-01T23:58:09.432Z,32.07
